METAR Data
IDs: Format: Raw Decoded Include TAF

Data at: 1117 UTC 26 Sep 2018

KLXL 261055Z AUTO 27004KT 1 3/4SM BR OVC002 04/04 A3004 RMK AO2
KLXL 261035Z AUTO 27005KT 4SM BR BKN004 BKN060 OVC100 03/03 A3004 RMK AO2
KLXL 261015Z AUTO 00000KT 10SM SCT004 BKN100 01/01 A3003 RMK AO2
KLXL 260955Z AUTO 14003KT 10SM SCT100 01/01 A3002 RMK AO2
KLXL 260935Z AUTO 00000KT 2SM BR CLR 00/00 A3002 RMK AO2 VIS 1/2V5
KLXL 260915Z AUTO 00000KT 2 1/2SM BR CLR 01/01 A3002 RMK AO2 VIS 3/4V5
KLXL 260855Z AUTO 00000KT 7SM CLR 01/01 A3002 RMK AO2
KLXL 260835Z AUTO 00000KT 5SM BR CLR 01/01 A3002 RMK AO2
KLXL 260815Z AUTO 00000KT 10SM CLR 01/01 A3002 RMK AO2
KLXL 260755Z AUTO 00000KT 10SM CLR 01/01 A3002 RMK AO2
KLXL 260735Z AUTO 00000KT 10SM CLR 03/03 A3002 RMK AO2
KLXL 260715Z AUTO 00000KT 10SM CLR 03/03 A3002 RMK AO2
KLXL 260655Z AUTO 00000KT 10SM CLR 03/03 A3002 RMK AO2
KLXL 260635Z AUTO 00000KT 10SM CLR 03/03 A3002 RMK AO2
KLXL 260615Z AUTO 00000KT 10SM CLR 03/03 A3001 RMK AO2
KLXL 260555Z AUTO 00000KT 10SM CLR 04/03 A3002 RMK AO2
KLXL 260535Z AUTO 00000KT 10SM CLR 04/03 A3001 RMK AO2
KLXL 260515Z AUTO 00000KT 10SM CLR 04/04 A3001 RMK AO2
KLXL 260455Z AUTO 00000KT 10SM CLR 05/05 A3001 RMK AO2
KLXL 260435Z AUTO 00000KT 10SM CLR 04/04 A3001 RMK AO2
KLXL 260415Z AUTO 00000KT 10SM CLR 03/03 A3001 RMK AO2
KLXL 260355Z AUTO 00000KT 10SM CLR 02/02 A3000 RMK AO2
KLXL 260335Z AUTO 00000KT 7SM CLR 04/04 A3000 RMK AO2
KLXL 260315Z AUTO 00000KT 7SM CLR 04/04 A2999 RMK AO2
KLXL 260255Z AUTO 00000KT 1SM BR VV007 03/03 A2999 RMK AO2
KLXL 260235Z AUTO 00000KT 10SM CLR 05/05 A2999 RMK AO2
KLXL 260215Z AUTO 00000KT 2 1/2SM BR CLR 05/05 A2999 RMK AO2 VIS 3/4V5
KLXL 260155Z AUTO 00000KT 10SM CLR 05/05 A2999 RMK AO2
KLXL 260135Z AUTO 00000KT 10SM CLR 05/05 A2999 RMK AO2
KLXL 260115Z AUTO 00000KT 10SM CLR 06/06 A2999 RMK AO2
KLXL 260055Z AUTO 00000KT 10SM SCT049 07/06 A2998 RMK AO2
KLXL 260035Z AUTO 00000KT 10SM BKN049 09/05 A2998 RMK AO2
KLXL 260015Z AUTO 27004KT 10SM OVC047 10/06 A2998 RMK AO2
KLXL 252355Z AUTO 28005KT 10SM SCT032 SCT039 OVC047 10/06 A2997 RMK AO2
KLXL 252335Z AUTO 27003KT 10SM SCT032 BKN043 10/06 A2997 RMK AO2
KLXL 252315Z AUTO 27004KT 10SM BKN041 BKN065 10/06 A2996 RMK AO2
KLXL 252255Z AUTO 28007KT 10SM SCT029 OVC039 10/06 A2996 RMK AO2
KLXL 252235Z AUTO 29009KT 10SM SCT029 BKN034 OVC060 10/06 A2996 RMK AO2
KLXL 252215Z AUTO 29007KT 10SM SCT026 OVC060 10/07 A2995 RMK AO2
KLXL 252155Z AUTO 28006KT 10SM OVC050 10/07 A2995 RMK AO2
KLXL 252135Z AUTO 29007KT 10SM BKN048 OVC060 09/07 A2995 RMK AO2
KLXL 252115Z AUTO 28005KT 10SM -DZ BKN055 OVC070 09/07 A2995 RMK AO2 TSNO
KLXL 252055Z AUTO 30006KT 10SM -RA SCT036 OVC055 09/07 A2996 RMK AO2
KLXL 252035Z AUTO 30004KT 10SM -DZ SCT023 BKN029 OVC034 08/07 A2997 RMK AO2
KLXL 252015Z AUTO 30010G15KT 10SM -RA BKN025 OVC032 09/07 A2997 RMK AO2
KLXL 251955Z AUTO 30007KT 10SM -RA SCT031 SCT049 OVC060 10/06 A2997 RMK AO2 LTG DSNT W
KLXL 251935Z AUTO 30009KT 10SM -RA SCT031 SCT039 OVC060 11/05 A2997 RMK AO2
KLXL 251915Z AUTO 30007KT 10SM -RA SCT026 BKN033 OVC075 10/06 A2997 RMK AO2 LTG DSNT W
KLXL 251855Z AUTO 29007KT 10SM SCT021 SCT027 BKN036 11/06 A2997 RMK AO2
KLXL 251835Z AUTO 29010KT 10SM SCT019 SCT025 BKN036 11/07 A2997 RMK AO2
KLXL 251815Z AUTO 30006KT 10SM SCT022 BKN030 BKN060 11/07 A2997 RMK AO2
KLXL 251755Z AUTO 29007KT 10SM SCT018 SCT023 OVC065 10/07 A2998 RMK AO2
KLXL 251735Z AUTO 30004KT 10SM SCT016 BKN065 BKN075 10/07 A2998 RMK AO2
KLXL 251715Z AUTO 29005KT 10SM SCT016 BKN060 OVC075 10/07 A2999 RMK AO2
KLXL 251655Z AUTO 28005KT 10SM SCT039 BKN070 OVC080 09/07 A2999 RMK AO2
KLXL 251635Z AUTO 29005KT 10SM SCT010 OVC090 09/07 A2999 RMK AO2
KLXL 251615Z AUTO 28004KT 10SM BKN010 OVC090 08/07 A2998 RMK AO2
KLXL 251555Z AUTO 29004KT 10SM BKN010 BKN110 08/07 A2997 RMK AO2
KLXL 251535Z AUTO 29004KT 10SM SCT008 BKN090 08/07 A2997 RMK AO2
KLXL 251515Z AUTO 28003KT 10SM SCT008 OVC090 08/07 A2998 RMK AO2
KLXL 251455Z AUTO 00000KT 10SM OVC100 07/07 A2998 RMK AO2
KLXL 251435Z AUTO 00000KT 10SM OVC100 07/07 A2998 RMK AO2
KLXL 251415Z AUTO 28003KT 10SM BKN110 07/07 A2998 RMK AO2
KLXL 251355Z AUTO 26003KT 10SM SCT110 07/07 A2997 RMK AO2
KLXL 251335Z AUTO 29004KT 10SM SCT110 07/07 A2996 RMK AO2
KLXL 251315Z AUTO 00000KT 10SM SCT110 07/07 A2995 RMK AO2
KLXL 251255Z AUTO 00000KT 10SM BKN018 07/07 A2994 RMK AO2
KLXL 251235Z AUTO 00000KT 10SM OVC018 07/07 A2994 RMK AO2
KLXL 251215Z AUTO 00000KT 10SM SCT014 BKN020 07/07 A2995 RMK AO2
KLXL 251155Z AUTO 35003KT 10SM SCT013 SCT019 07/07 A2994 RMK AO2
KLXL 251135Z AUTO 00000KT 10SM BKN010 BKN016 07/07 A2995 RMK AO2
KLXL 251115Z AUTO 35004KT 10SM BKN010 OVC015 08/07 A2994 RMK AO2
KLXL 251055Z AUTO 34003KT 10SM BKN010 OVC013 08/07 A2994 RMK AO2
KLXL 251035Z AUTO 33005KT 10SM OVC010 08/07 A2994 RMK AO2
KLXL 251015Z AUTO 33004KT 10SM OVC010 08/07 A2995 RMK AO2
KLXL 250955Z AUTO 35003KT 10SM BKN010 OVC014 08/07 A2995 RMK AO2
KLXL 250935Z AUTO 30005KT 10SM OVC014 08/07 A2995 RMK AO2
KLXL 250915Z AUTO 32004KT 10SM SCT009 OVC016 08/08 A2994 RMK AO2
KLXL 250855Z AUTO 00000KT 10SM OVC016 08/08 A2993 RMK AO2
KLXL 250835Z AUTO 32003KT 10SM SCT009 OVC016 08/08 A2994 RMK AO2
KLXL 250816Z AUTO 31004KT 10SM OVC009 08/08 A2993 RMK AO2
KLXL 250756Z AUTO 31004KT 10SM OVC009 08/08 A2992 RMK AO2
KLXL 250735Z AUTO 32005KT 10SM OVC009 08/08 A2992 RMK AO2
KLXL 250715Z AUTO 31004KT 10SM OVC009 08/08 A2992 RMK AO2
KLXL 250655Z AUTO 32003KT 10SM OVC009 08/08 A2991 RMK AO2
KLXL 250635Z AUTO 32004KT 10SM OVC009 08/08 A2991 RMK AO2
KLXL 250615Z AUTO 32005KT 10SM OVC009 08/08 A2991 RMK AO2
KLXL 250555Z AUTO 32005KT 10SM OVC009 08/08 A2991 RMK AO2
KLXL 250535Z AUTO 32006KT 10SM OVC009 08/08 A2991 RMK AO2
KLXL 250515Z AUTO 31006KT 10SM OVC009 09/09 A2991 RMK AO2
KLXL 250455Z AUTO 30006KT 10SM BKN009 OVC037 09/09 A2991 RMK AO2
KLXL 250435Z AUTO 31007KT 10SM BKN009 OVC037 09/09 A2991 RMK AO2
KLXL 250415Z AUTO 31006KT 10SM BKN009 OVC040 10/10 A2990 RMK AO2
KLXL 250355Z AUTO 30006KT 10SM SCT009 SCT024 OVC040 09/09 A2991 RMK AO2
KLXL 250335Z AUTO 30006KT 10SM BKN024 OVC040 09/09 A2990 RMK AO2
KLXL 250315Z AUTO 31005KT 10SM OVC022 10/10 A2990 RMK AO2
KLXL 250255Z AUTO 30006KT 10SM SCT008 BKN018 OVC023 10/10 A2989 RMK AO2
KLXL 250235Z AUTO 30008KT 273V343 10SM BKN008 OVC016 10/10 A2989 RMK AO2
KLXL 250215Z AUTO 31003KT 10SM OVC008 10/10 A2989 RMK AO2
KLXL 250155Z AUTO 32005KT 10SM BKN004 OVC008 11/11 A2988 RMK AO2
KLXL 250135Z AUTO 30008KT 10SM OVC004 12/12 A2987 RMK AO2
KLXL 250115Z AUTO 29007KT 10SM OVC006 12/12 A2986 RMK AO2
KLXL 250055Z AUTO 31004KT 10SM SCT003 BKN009 OVC110 12/12 A2985 RMK AO2
KLXL 250035Z AUTO 31003KT 10SM SCT005 SCT009 OVC110 13/13 A2984 RMK AO2
KLXL 250015Z AUTO 00000KT 10SM -DZ SCT002 BKN070 OVC110 13/13 A2984 RMK AO2
KLXL 242355Z AUTO 00000KT 7SM -RA SCT004 BKN036 OVC065 13/13 A2983 RMK AO2
KLXL 242335Z AUTO 00000KT 5SM RA SCT006 SCT021 OVC055 13/13 A2983 RMK AO2